Time;durP1;ratioP1;P1;durP2;ratioP2;P2;SDS_P1;SDS_P2;PMS_P1;PMS_P2;Temp;Humidity;BMP_temperature;BMP_pressure;BME280_temperature;BME280_humidity;BME280_pressure;Samples;Min_cycle;Max_cycle;Signal;HPM_P1;HPM_P2
2023/01/14 00:01:43;;;;;;;7.00;3.03;;;4.40;99.90;;;;;;5073112;28;20421;-70
2023/01/14 00:04:09;;;;;;;6.10;3.10;;;4.40;99.90;;;;;;5072872;28;20801;-70
2023/01/14 00:06:37;;;;;;;5.90;3.20;;;4.40;99.90;;;;;;5072951;28;20956;-71
2023/01/14 00:09:06;;;;;;;5.33;2.33;;;4.30;99.90;;;;;;5072106;28;20260;-70
2023/01/14 00:11:48;;;;;;;17.37;3.13;;;4.30;99.90;;;;;;5061902;28;20466;-70
2023/01/14 00:14:29;;;;;;;11.93;4.77;;;4.30;99.90;;;;;;5071559;28;20465;-70
2023/01/14 00:16:55;;;;;;;4.70;3.13;;;4.20;99.90;;;;;;5090757;28;20430;-71
2023/01/14 00:19:21;;;;;;;2.00;1.80;;;4.20;99.90;;;;;;5082339;28;20434;-70
2023/01/14 00:21:46;;;;;;;10.23;3.80;;;4.20;99.90;;;;;;5072568;28;20173;-69
2023/01/14 00:24:13;;;;;;;9.57;3.30;;;4.20;99.90;;;;;;5072484;28;20527;-71
2023/01/14 00:26:40;;;;;;;5.40;2.87;;;4.20;99.90;;;;;;5072539;28;20180;-70
2023/01/14 00:29:08;;;;;;;9.80;2.33;;;4.20;99.90;;;;;;5056242;28;20796;-70
2023/01/14 00:31:33;;;;;;;5.70;2.80;;;4.20;99.90;;;;;;5062464;28;20519;-71
2023/01/14 00:33:59;;;;;;;7.57;2.67;;;4.20;99.90;;;;;;5072410;28;20462;-71
2023/01/14 00:36:26;;;;;;;6.50;2.57;;;4.10;99.90;;;;;;5072325;28;20168;-70
2023/01/14 00:38:52;;;;;;;7.53;3.27;;;4.10;99.90;;;;;;5071503;28;20503;-71
2023/01/14 00:41:21;;;;;;;3.10;2.77;;;4.10;99.90;;;;;;5071988;28;20419;-70
2023/01/14 00:43:49;;;;;;;4.43;2.50;;;4.00;99.90;;;;;;5072049;28;20807;-71
2023/01/14 00:46:17;;;;;;;8.60;2.90;;;4.00;99.90;;;;;;5055627;28;20428;-71
2023/01/14 00:48:43;;;;;;;4.93;3.03;;;4.00;99.90;;;;;;5051250;28;20454;-71
2023/01/14 00:51:10;;;;;;;5.80;2.20;;;4.00;99.90;;;;;;5052087;28;20799;-70
2023/01/14 00:53:37;;;;;;;4.73;2.07;;;4.00;99.90;;;;;;5052119;28;20435;-71
2023/01/14 00:56:03;;;;;;;7.90;3.03;;;4.00;99.90;;;;;;5052056;28;20415;-71
2023/01/14 00:58:29;;;;;;;5.40;2.07;;;4.00;99.90;;;;;;5051350;28;20794;-71
2023/01/14 01:00:55;;;;;;;3.20;1.90;;;3.90;99.90;;;;;;5052113;28;20423;-71
2023/01/14 01:03:21;;;;;;;11.83;2.20;;;4.00;99.90;;;;;;5052478;28;20201;-71
2023/01/14 01:05:47;;;;;;;2.80;1.80;;;3.90;99.90;;;;;;5051972;28;20791;-70
2023/01/14 01:08:16;;;;;;;7.33;2.30;;;3.90;99.90;;;;;;5062469;28;20451;-70
2023/01/14 01:10:43;;;;;;;5.07;2.30;;;3.90;99.90;;;;;;5071953;28;20782;-71
2023/01/14 01:13:09;;;;;;;7.17;2.57;;;3.90;99.90;;;;;;5071782;28;20423;-71
2023/01/14 01:15:36;;;;;;;5.40;1.83;;;3.90;99.90;;;;;;5064867;28;20474;-70
2023/01/14 01:18:02;;;;;;;3.40;1.90;;;3.90;99.90;;;;;;5078403;28;20444;-70
2023/01/14 01:20:28;;;;;;;4.70;2.40;;;3.90;99.90;;;;;;5079429;28;20435;-70
2023/01/14 01:22:54;;;;;;;3.87;1.97;;;3.90;99.90;;;;;;5079319;28;20441;-70
2023/01/14 01:25:20;;;;;;;4.20;2.47;;;3.90;99.90;;;;;;5081487;28;20450;-71
2023/01/14 01:27:45;;;;;;;3.87;1.40;;;3.80;99.90;;;;;;5069241;28;20205;-71
2023/01/14 01:30:11;;;;;;;9.67;2.00;;;3.80;99.90;;;;;;5089958;28;20415;-71
2023/01/14 01:32:37;;;;;;;5.40;2.20;;;3.70;99.90;;;;;;5092017;28;20181;-71
2023/01/14 01:35:03;;;;;;;8.73;2.40;;;3.70;99.90;;;;;;5071868;28;20443;-71
2023/01/14 01:37:29;;;;;;;6.20;2.57;;;3.70;99.90;;;;;;5053359;28;20179;-71
2023/01/14 01:39:54;;;;;;;9.63;2.53;;;3.70;99.90;;;;;;5050949;28;20180;-70
2023/01/14 01:42:24;;;;;;;7.67;2.10;;;3.70;99.90;;;;;;5051660;28;20714;-71
2023/01/14 01:44:49;;;;;;;6.70;2.00;;;3.70;99.90;;;;;;5051621;28;20196;-71
2023/01/14 01:47:18;;;;;;;9.60;2.53;;;3.80;99.90;;;;;;5071369;28;20513;-70
2023/01/14 01:49:44;;;;;;;8.43;2.13;;;3.80;99.90;;;;;;5070844;28;20173;-71
2023/01/14 01:52:23;;;;;;;3.63;2.00;;;3.80;99.90;;;;;;5071643;28;20426;-71
2023/01/14 01:55:04;;;;;;;12.87;2.70;;;3.80;99.90;;;;;;5055053;28;21035;-70
2023/01/14 01:57:30;;;;;;;4.73;1.63;;;3.90;99.90;;;;;;5055399;28;20774;-70
2023/01/14 01:59:59;;;;;;;8.40;3.00;;;3.90;99.90;;;;;;5054573;28;20424;-70
2023/01/14 02:02:27;;;;;;;5.47;1.67;;;3.90;99.90;;;;;;5055301;28;20416;-71
2023/01/14 02:04:52;;;;;;;4.10;2.40;;;3.90;99.90;;;;;;5055126;28;20435;-71
2023/01/14 02:07:25;;;;;;;7.53;1.93;;;4.00;99.90;;;;;;5055104;28;20485;-70
2023/01/14 02:09:54;;;;;;;16.97;2.40;;;4.00;99.90;;;;;;5055062;28;20177;-70
2023/01/14 02:12:38;;;;;;;7.17;2.67;;;4.10;99.90;;;;;;5055027;28;20427;-71
2023/01/14 02:15:23;;;;;;;4.30;2.00;;;4.10;99.90;;;;;;5037100;28;20463;-71
2023/01/14 02:17:54;;;;;;;8.23;2.40;;;4.10;99.90;;;;;;5055089;28;20430;-70
2023/01/14 02:20:23;;;;;;;4.60;1.90;;;4.10;99.90;;;;;;5054270;28;20759;-70
2023/01/14 02:23:26;;;;;;;7.67;2.60;;;4.10;99.90;;;;;;5066774;28;20415;-71
2023/01/14 02:25:57;;;;;;;10.73;3.23;;;4.10;99.90;;;;;;5074745;28;20415;-70
2023/01/14 02:28:44;;;;;;;3.30;2.13;;;4.00;99.90;;;;;;5060329;28;20451;-71
2023/01/14 02:31:49;;;;;;;2.87;1.83;;;4.00;99.90;;;;;;5071701;28;20443;-71
2023/01/14 02:34:22;;;;;;;6.40;1.97;;;4.00;99.90;;;;;;5071251;28;20461;-71
2023/01/14 02:36:52;;;;;;;6.53;2.10;;;4.00;99.90;;;;;;5064597;28;20427;-71
2023/01/14 02:39:39;;;;;;;6.67;1.73;;;4.00;99.90;;;;;;5077545;28;20435;-71
2023/01/14 02:45:15;;;;;;;3.80;1.90;;;3.90;99.90;;;;;;5061302;28;20966;-70
2023/01/14 02:47:42;;;;;;;7.97;2.00;;;3.90;99.90;;;;;;5054389;28;20443;-71
2023/01/14 02:50:11;;;;;;;3.67;1.67;;;3.90;99.90;;;;;;5053851;28;20416;-70
2023/01/14 02:52:37;;;;;;;2.80;2.00;;;3.80;99.90;;;;;;5054624;28;20411;-70
2023/01/14 02:55:02;;;;;;;5.53;1.60;;;3.80;99.90;;;;;;5054144;28;20855;-70
2023/01/14 02:58:05;;;;;;;3.87;1.97;;;3.80;99.90;;;;;;5073976;28;20169;-70
2023/01/14 03:00:38;;;;;;;6.87;2.57;;;3.90;99.90;;;;;;5071253;28;20438;-70
2023/01/14 03:03:21;;;;;;;6.93;2.07;;;3.80;99.90;;;;;;5054195;28;20418;-70
2023/01/14 03:05:59;;;;;;;8.03;2.00;;;3.80;99.90;;;;;;5053566;28;20782;-71
2023/01/14 03:08:34;;;;;;;6.10;2.20;;;3.90;99.90;;;;;;5053199;28;20458;-71
2023/01/14 03:11:04;;;;;;;4.50;1.97;;;3.80;99.90;;;;;;5054068;28;20427;-71
2023/01/14 03:13:48;;;;;;;4.80;1.93;;;3.80;99.90;;;;;;5053914;28;20455;-70
2023/01/14 03:16:26;;;;;;;4.70;1.53;;;3.90;99.90;;;;;;5053993;28;20427;-71
2023/01/14 03:19:12;;;;;;;1.73;1.30;;;3.90;99.90;;;;;;5053687;28;20430;-71
2023/01/14 03:21:43;;;;;;;4.80;2.37;;;3.90;99.90;;;;;;5053927;28;20442;-70
2023/01/14 03:24:18;;;;;;;3.50;1.60;;;3.80;99.90;;;;;;5053722;28;20867;-70
2023/01/14 03:26:47;;;;;;;4.70;1.47;;;3.80;99.90;;;;;;5053764;28;20766;-71
2023/01/14 03:29:22;;;;;;;4.30;1.40;;;3.70;99.90;;;;;;5052855;28;20487;-70
2023/01/14 03:31:55;;;;;;;3.30;1.33;;;3.80;99.90;;;;;;5036914;28;20740;-70
2023/01/14 03:34:28;;;;;;;5.07;1.80;;;3.70;99.90;;;;;;5072601;28;20494;-71
2023/01/14 03:36:57;;;;;;;5.23;2.07;;;3.80;99.90;;;;;;5053554;28;20451;-70
2023/01/14 03:39:26;;;;;;;2.97;1.50;;;3.80;99.90;;;;;;5052709;28;20419;-70
2023/01/14 03:44:57;;;;;;;4.33;1.80;;;3.90;99.90;;;;;;5053480;28;20455;-69
2023/01/14 03:47:26;;;;;;;4.87;1.83;;;3.90;99.90;;;;;;5053274;28;20827;-70
2023/01/14 03:49:52;;;;;;;5.70;1.77;;;3.90;99.90;;;;;;5052567;28;20844;-71
2023/01/14 03:52:46;;;;;;;3.93;1.33;;;4.00;99.90;;;;;;5053764;28;20447;-70
2023/01/14 03:55:15;;;;;;;2.50;1.20;;;4.00;99.90;;;;;;5053101;28;20212;-71
2023/01/14 03:58:02;;;;;;;3.80;1.20;;;3.90;99.90;;;;;;5053159;28;20501;-71
2023/01/14 04:00:36;;;;;;;3.07;1.50;;;3.90;99.90;;;;;;5052422;28;20865;-70
2023/01/14 04:03:06;;;;;;;4.70;1.93;;;3.90;99.90;;;;;;5053132;28;20426;-70
2023/01/14 04:05:32;;;;;;;4.93;1.33;;;3.90;99.90;;;;;;5053062;28;20423;-71
2023/01/14 04:07:59;;;;;;;3.70;1.50;;;3.90;99.90;;;;;;5052834;28;20851;-71
2023/01/14 04:10:25;;;;;;;4.87;1.77;;;3.90;99.90;;;;;;5052774;28;20460;-71
2023/01/14 04:15:35;;;;;;;7.20;1.57;;;3.90;99.90;;;;;;5052842;28;20231;-70
2023/01/14 04:18:00;;;;;;;6.83;1.70;;;3.80;99.90;;;;;;5051631;28;20782;-71
2023/01/14 04:20:26;;;;;;;4.93;1.70;;;3.80;99.90;;;;;;5052019;28;20181;-70
2023/01/14 04:22:51;;;;;;;5.83;1.73;;;3.80;99.90;;;;;;5052641;28;20182;-70
2023/01/14 04:25:17;;;;;;;7.27;2.07;;;3.80;99.90;;;;;;5053159;28;20726;-71
2023/01/14 04:27:42;;;;;;;5.80;1.43;;;3.80;99.90;;;;;;5052474;28;20201;-69
2023/01/14 04:30:08;;;;;;;5.93;1.33;;;3.80;99.90;;;;;;5051824;28;20242;-69
2023/01/14 04:32:34;;;;;;;9.77;2.03;;;3.90;99.90;;;;;;5060346;28;20638;-70
2023/01/14 04:34:59;;;;;;;3.23;1.33;;;3.90;99.90;;;;;;5072411;28;20500;-68
2023/01/14 04:37:25;;;;;;;4.83;1.70;;;3.90;99.90;;;;;;5072399;28;20201;-68
2023/01/14 04:39:51;;;;;;;2.73;2.10;;;3.90;99.90;;;;;;5071675;28;20195;-68
2023/01/14 04:42:26;;;;;;;10.83;2.30;;;3.90;99.90;;;;;;5071522;28;20626;-69
2023/01/14 04:44:57;;;;;;;5.70;2.03;;;3.90;99.90;;;;;;5052300;28;20585;-69
2023/01/14 04:47:23;;;;;;;6.27;1.37;;;4.00;99.90;;;;;;5052301;28;20412;-69
2023/01/14 04:49:50;;;;;;;5.40;1.90;;;4.00;99.90;;;;;;5051550;28;20420;-68
2023/01/14 04:52:16;;;;;;;5.07;1.57;;;4.00;99.90;;;;;;5052157;28;20491;-68
2023/01/14 04:54:42;;;;;;;3.23;1.90;;;4.00;99.90;;;;;;5051998;28;20428;-68
2023/01/14 04:57:08;;;;;;;7.03;1.30;;;4.00;99.90;;;;;;5052118;28;20418;-68
2023/01/14 04:59:34;;;;;;;3.70;1.30;;;4.00;99.90;;;;;;5052112;28;20445;-68
2023/01/14 05:01:59;;;;;;;2.13;1.93;;;4.00;99.90;;;;;;5052073;28;20416;-68
2023/01/14 05:04:25;;;;;;;7.20;2.03;;;4.00;99.90;;;;;;5051942;28;20663;-70
2023/01/14 05:06:50;;;;;;;7.80;1.23;;;4.00;99.90;;;;;;5052015;28;20172;-68
2023/01/14 05:09:16;;;;;;;4.83;1.30;;;4.00;99.90;;;;;;5051275;28;20630;-68
2023/01/14 05:11:41;;;;;;;3.10;1.30;;;4.00;99.90;;;;;;5059518;28;20259;-72
2023/01/14 05:14:07;;;;;;;7.90;1.70;;;4.00;99.90;;;;;;5082814;22;20271;-71
2023/01/14 05:16:32;;;;;;;4.23;1.40;;;4.00;99.90;;;;;;5044233;28;20251;-70
2023/01/14 05:18:58;;;;;;;4.60;1.20;;;4.00;99.90;;;;;;5032497;28;20659;-70
2023/01/14 05:21:24;;;;;;;2.40;1.20;;;3.90;99.90;;;;;;5041904;28;20181;-71
2023/01/14 05:23:49;;;;;;;5.87;1.30;;;3.90;99.90;;;;;;5034744;28;20201;-71
2023/01/14 05:26:15;;;;;;;4.73;1.37;;;3.90;99.90;;;;;;5037090;28;20436;-70
2023/01/14 05:28:41;;;;;;;9.03;2.43;;;3.90;99.90;;;;;;5044450;28;20264;-70
2023/01/14 05:31:06;;;;;;;4.70;1.80;;;3.90;99.90;;;;;;5055730;28;20208;-72
2023/01/14 05:33:32;;;;;;;4.57;1.37;;;3.90;99.90;;;;;;5035710;28;20181;-71
2023/01/14 05:35:58;;;;;;;4.03;2.80;;;3.90;99.90;;;;;;5035788;28;20263;-71
2023/01/14 05:38:24;;;;;;;5.13;1.83;;;3.90;99.90;;;;;;5035117;28;20209;-70
2023/01/14 05:40:50;;;;;;;4.50;1.57;;;3.90;99.90;;;;;;5035702;28;20483;-71
2023/01/14 05:46:05;;;;;;;1.50;1.00;;;4.00;99.90;;;;;;5036030;28;20493;-70
2023/01/14 05:48:30;;;;;;;3.87;1.30;;;4.00;99.90;;;;;;5034812;28;20459;-71
2023/01/14 05:50:58;;;;;;;5.50;3.07;;;4.00;99.90;;;;;;5035529;28;20421;-71
2023/01/14 05:53:25;;;;;;;5.00;1.60;;;4.10;99.90;;;;;;5035303;28;20181;-71
2023/01/14 05:55:52;;;;;;;6.60;1.93;;;4.10;99.90;;;;;;5035495;28;20474;-70
2023/01/14 05:58:18;;;;;;;1.23;1.10;;;4.10;99.90;;;;;;5034774;28;20425;-70
2023/01/14 06:06:26;;;;;;;8.17;2.73;;;4.10;99.90;;;;;;5035379;28;20435;-70
2023/01/14 06:08:53;;;;;;;4.93;1.40;;;4.10;99.90;;;;;;5034382;28;20513;-71
2023/01/14 06:11:20;;;;;;;3.80;1.07;;;4.10;99.90;;;;;;5035187;28;20415;-71
2023/01/14 06:13:49;;;;;;;4.50;1.77;;;4.10;99.90;;;;;;5034952;28;20441;-70
2023/01/14 06:16:16;;;;;;;2.40;1.50;;;4.10;99.90;;;;;;5035146;28;20416;-69
2023/01/14 06:18:42;;;;;;;4.63;1.60;;;4.00;99.90;;;;;;5034307;28;20439;-69
2023/01/14 06:21:10;;;;;;;6.73;1.60;;;4.00;99.90;;;;;;5034946;28;20482;-69
2023/01/14 06:23:35;;;;;;;2.40;1.60;;;4.00;99.90;;;;;;5034993;28;20420;-71
2023/01/14 06:26:01;;;;;;;6.50;1.80;;;4.00;99.90;;;;;;5034251;28;20951;-70
2023/01/14 06:28:28;;;;;;;8.87;1.73;;;4.10;99.90;;;;;;5040038;28;20243;-70
2023/01/14 06:30:54;;;;;;;5.47;1.80;;;4.10;99.90;;;;;;5025583;28;20266;-71
2023/01/14 06:33:20;;;;;;;5.17;1.30;;;4.10;99.90;;;;;;5042247;28;20874;-70
2023/01/14 06:35:46;;;;;;;4.30;1.50;;;4.10;99.90;;;;;;5037921;28;20819;-69
2023/01/14 06:38:13;;;;;;;9.50;2.00;;;4.10;99.90;;;;;;5049495;28;20420;-70
2023/01/14 06:40:39;;;;;;;6.67;2.00;;;4.00;99.90;;;;;;5050516;28;20220;-70
2023/01/14 06:43:06;;;;;;;3.67;1.53;;;4.00;99.90;;;;;;5034553;28;20429;-70
2023/01/14 06:45:32;;;;;;;8.60;2.40;;;4.00;99.90;;;;;;5034472;28;20441;-69
2023/01/14 06:47:57;;;;;;;5.30;1.60;;;4.00;99.90;;;;;;5034616;28;21020;-70
2023/01/14 06:50:23;;;;;;;6.60;3.60;;;4.10;99.90;;;;;;5033753;28;20178;-70
2023/01/14 06:52:48;;;;;;;2.80;1.50;;;4.10;99.90;;;;;;5034382;28;20178;-70
2023/01/14 06:55:15;;;;;;;6.80;2.30;;;4.10;99.90;;;;;;5034351;28;20186;-70
2023/01/14 06:57:42;;;;;;;6.63;1.93;;;4.10;99.90;;;;;;5034426;28;20178;-70
2023/01/14 07:00:08;;;;;;;10.47;2.77;;;4.10;99.90;;;;;;5033485;28;20432;-70
2023/01/14 07:02:34;;;;;;;3.27;2.10;;;4.10;99.90;;;;;;5034299;28;20804;-70
2023/01/14 07:04:59;;;;;;;2.77;1.77;;;4.10;99.90;;;;;;5034144;28;20437;-69
2023/01/14 07:07:25;;;;;;;2.97;1.83;;;4.20;99.90;;;;;;5034202;28;20647;-70
2023/01/14 07:09:51;;;;;;;3.97;1.90;;;4.20;99.90;;;;;;5033570;28;20241;-71
2023/01/14 07:12:16;;;;;;;3.90;2.20;;;4.10;99.90;;;;;;5034142;28;20178;-71
2023/01/14 07:14:42;;;;;;;4.47;1.90;;;4.20;99.90;;;;;;5033850;28;20225;-71
2023/01/14 07:17:08;;;;;;;4.00;2.00;;;4.20;99.90;;;;;;5034100;28;20198;-69
2023/01/14 07:19:34;;;;;;;4.50;2.10;;;4.20;99.90;;;;;;5033162;28;20447;-70
2023/01/14 07:21:59;;;;;;;5.13;2.10;;;4.30;99.90;;;;;;5034055;28;20416;-70
2023/01/14 07:24:25;;;;;;;4.93;2.10;;;4.30;99.90;;;;;;5033858;28;20208;-70
2023/01/14 07:26:50;;;;;;;5.13;2.10;;;4.30;99.90;;;;;;5033830;28;20178;-71
2023/01/14 07:29:16;;;;;;;2.87;1.60;;;4.30;99.90;;;;;;5032894;28;20209;-71
2023/01/14 07:31:41;;;;;;;5.13;2.13;;;4.40;99.90;;;;;;5033797;28;20185;-69
2023/01/14 07:34:07;;;;;;;4.53;3.27;;;4.40;99.90;;;;;;5015628;28;20194;-71
2023/01/14 07:36:33;;;;;;;4.67;1.53;;;4.40;99.90;;;;;;5038320;28;20547;-71
2023/01/14 07:38:58;;;;;;;7.70;2.60;;;4.50;99.90;;;;;;5041708;28;20189;-69
2023/01/14 07:41:24;;;;;;;3.87;2.00;;;4.50;99.90;;;;;;5046975;28;20213;-70
2023/01/14 07:43:50;;;;;;;2.50;1.77;;;4.50;99.90;;;;;;5047060;28;20190;-70
2023/01/14 07:46:16;;;;;;;5.63;1.77;;;4.50;99.90;;;;;;5033488;28;20179;-70
2023/01/14 07:48:43;;;;;;;5.73;2.17;;;4.50;99.90;;;;;;5032547;28;20659;-70
2023/01/14 07:51:08;;;;;;;1.93;1.40;;;4.60;99.90;;;;;;5033087;28;20482;-70
2023/01/14 07:53:35;;;;;;;2.90;1.83;;;4.60;99.90;;;;;;5033250;28;20449;-70
2023/01/14 07:56:05;;;;;;;7.67;2.30;;;4.70;99.90;;;;;;5033136;28;20459;-71
2023/01/14 07:58:31;;;;;;;5.13;2.10;;;4.80;99.90;;;;;;5032685;28;20431;-70
2023/01/14 08:00:57;;;;;;;5.57;2.80;;;4.90;99.90;;;;;;5033282;28;20432;-71
2023/01/14 08:03:24;;;;;;;9.20;2.60;;;4.90;99.90;;;;;;5033058;28;20477;-70
2023/01/14 08:05:51;;;;;;;4.83;2.20;;;5.00;99.90;;;;;;5015432;28;20840;-70
2023/01/14 08:08:17;;;;;;;7.50;2.30;;;5.10;99.90;;;;;;5032071;28;20536;-70
2023/01/14 08:10:43;;;;;;;8.53;2.80;;;5.10;99.90;;;;;;5032903;28;20471;-69
2023/01/14 08:13:13;;;;;;;7.60;3.10;;;5.20;99.90;;;;;;5032932;28;20419;-70
2023/01/14 08:15:38;;;;;;;13.50;5.80;;;5.30;99.90;;;;;;5032861;28;20202;-70
2023/01/14 08:18:04;;;;;;;10.43;2.27;;;5.30;99.90;;;;;;5032782;28;20922;-70
2023/01/14 08:20:29;;;;;;;10.23;2.27;;;5.40;99.90;;;;;;5032238;28;20686;-70
2023/01/14 08:23:00;;;;;;;4.33;1.83;;;5.50;99.90;;;;;;5032834;28;20590;-70
2023/01/14 08:25:26;;;;;;;5.80;2.43;;;5.60;99.90;;;;;;5032517;28;20214;-71
2023/01/14 08:27:52;;;;;;;4.20;2.30;;;5.60;99.90;;;;;;5032689;28;20992;-70
2023/01/14 08:30:18;;;;;;;10.50;2.80;;;5.70;99.90;;;;;;5032059;28;20416;-71
2023/01/14 08:32:43;;;;;;;5.23;2.10;;;5.80;99.90;;;;;;5032392;28;20261;-71
2023/01/14 08:35:09;;;;;;;7.83;2.20;;;6.00;99.90;;;;;;5032399;28;20194;-71
2023/01/14 08:37:35;;;;;;;4.73;1.70;;;6.20;99.90;;;;;;5032513;28;20197;-71
2023/01/14 08:40:01;;;;;;;8.50;3.13;;;6.50;99.90;;;;;;5033165;28;20647;-71
2023/01/14 08:42:26;;;;;;;8.67;2.03;;;6.60;99.90;;;;;;5043368;28;20443;-70
2023/01/14 08:44:52;;;;;;;5.03;2.17;;;6.70;99.90;;;;;;5042514;28;20785;-70
2023/01/14 08:47:17;;;;;;;6.63;1.63;;;6.70;99.90;;;;;;5035519;28;20573;-70
2023/01/14 08:49:43;;;;;;;15.77;3.47;;;6.80;99.90;;;;;;5039363;28;20217;-70
2023/01/14 08:52:09;;;;;;;7.67;1.57;;;6.90;99.90;;;;;;5046941;28;20178;-70
2023/01/14 08:54:34;;;;;;;5.80;1.63;;;6.80;99.90;;;;;;5041179;28;20686;-70
2023/01/14 08:57:01;;;;;;;6.23;2.63;;;6.70;99.90;;;;;;5050544;28;20229;-71
2023/01/14 08:59:26;;;;;;;4.00;2.03;;;6.60;99.90;;;;;;5032585;28;20182;-70
2023/01/14 09:01:52;;;;;;;4.03;1.60;;;6.60;99.90;;;;;;5032147;28;20474;-71
2023/01/14 09:04:18;;;;;;;4.80;1.70;;;6.60;99.90;;;;;;5031472;28;20193;-70
2023/01/14 09:17:41;;;;;;;5.90;1.73;;;6.80;99.90;;;;;;5032263;28;20479;-71
2023/01/14 09:20:17;;;;;;;3.97;2.10;;;6.70;99.90;;;;;;5031251;28;20453;-71
2023/01/14 09:22:44;;;;;;;8.23;2.90;;;6.70;99.90;;;;;;5031853;28;20173;-71
2023/01/14 09:25:10;;;;;;;9.40;2.27;;;6.80;99.90;;;;;;5031844;28;20520;-70
2023/01/14 09:27:35;;;;;;;10.60;2.60;;;6.80;99.90;;;;;;5031823;28;21017;-71
2023/01/14 09:30:01;;;;;;;4.03;1.70;;;6.80;99.90;;;;;;5031115;28;20201;-71
2023/01/14 09:32:26;;;;;;;7.00;2.80;;;6.90;99.90;;;;;;5031762;28;20178;-71
2023/01/14 09:34:52;;;;;;;5.47;2.10;;;6.90;99.90;;;;;;5031649;28;20190;-70
2023/01/14 09:37:20;;;;;;;4.23;2.23;;;6.90;99.90;;;;;;5031742;28;20173;-71
2023/01/14 09:39:46;;;;;;;5.37;1.67;;;7.00;99.90;;;;;;5030881;28;20437;-71
2023/01/14 09:42:16;;;;;;;4.23;2.00;;;7.00;99.90;;;;;;5031653;28;20429;-71
2023/01/14 09:44:43;;;;;;;3.80;1.60;;;7.10;99.90;;;;;;5031458;28;20540;-70
2023/01/14 09:47:12;;;;;;;4.03;1.63;;;7.10;99.90;;;;;;5031710;28;20504;-71
2023/01/14 09:49:39;;;;;;;3.60;1.43;;;7.10;99.90;;;;;;5022881;28;20987;-72
2023/01/14 09:52:16;;;;;;;4.73;1.50;;;7.30;99.90;;;;;;5031604;28;20417;-71
2023/01/14 09:54:53;;;;;;;9.70;2.00;;;7.40;99.90;;;;;;5031700;28;20448;-70
2023/01/14 09:57:53;;;;;;;4.50;1.47;;;7.50;99.90;;;;;;5013915;28;20482;-70
2023/01/14 10:00:41;;;;;;;2.53;1.33;;;7.60;99.90;;;;;;5004697;28;20436;-71
2023/01/14 10:03:15;;;;;;;3.53;1.40;;;7.70;99.90;;;;;;5031655;28;20421;-70
2023/01/14 10:05:44;;;;;;;3.27;1.70;;;7.80;99.90;;;;;;5031436;28;20440;-71
2023/01/14 10:08:14;;;;;;;2.40;1.17;;;7.90;99.90;;;;;;5030890;28;20448;-71
2023/01/14 10:10:42;;;;;;;5.30;2.10;;;7.90;99.90;;;;;;5031453;28;20439;-70
2023/01/14 10:13:22;;;;;;;4.93;1.60;;;8.00;99.90;;;;;;5031507;28;20440;-70
2023/01/14 10:15:58;;;;;;;3.23;1.67;;;7.90;99.90;;;;;;5016965;28;20459;-72
2023/01/14 10:18:35;;;;;;;5.10;2.33;;;7.90;99.90;;;;;;5034403;28;20424;-71
2023/01/14 10:21:17;;;;;;;3.23;1.77;;;7.80;99.90;;;;;;5035174;28;20880;-71
2023/01/14 10:23:43;;;;;;;6.60;2.50;;;7.80;99.90;;;;;;5034885;28;20535;-70
2023/01/14 10:26:18;;;;;;;8.83;2.03;;;7.80;99.90;;;;;;5034897;28;20464;-70
2023/01/14 10:28:48;;;;;;;3.57;1.70;;;7.80;99.90;;;;;;5034154;28;20202;-71
2023/01/14 10:31:27;;;;;;;3.80;2.40;;;7.80;99.90;;;;;;5034848;28;20500;-71
2023/01/14 10:33:53;;;;;;;1.53;1.30;;;7.80;99.90;;;;;;5034842;28;20471;-71
2023/01/14 10:36:22;;;;;;;2.30;1.10;;;7.90;99.90;;;;;;5034821;28;20421;-71
2023/01/14 10:38:50;;;;;;;3.10;1.70;;;7.90;99.90;;;;;;5033938;28;20640;-70
2023/01/14 10:41:48;;;;;;;2.93;1.73;;;8.00;99.90;;;;;;5034441;28;20482;-71
2023/01/14 10:44:03;;;;;;;3.17;1.30;;;8.00;99.90;;;;;;5034434;28;20503;-71
2023/01/14 10:46:29;;;;;;;1.90;1.23;;;8.10;99.90;;;;;;5034550;28;20930;-70
2023/01/14 10:49:10;;;;;;;3.50;1.50;;;8.20;99.90;;;;;;5033683;28;20464;-71
2023/01/14 10:51:38;;;;;;;1.90;0.97;;;8.20;99.90;;;;;;5034473;28;20170;-70
2023/01/14 10:54:11;;;;;;;7.60;3.63;;;8.20;99.90;;;;;;5034328;28;20787;-71
2023/01/14 10:56:42;;;;;;;4.60;1.90;;;8.20;99.90;;;;;;5034473;28;20416;-72
2023/01/14 10:59:36;;;;;;;4.77;2.03;;;8.30;99.90;;;;;;5032575;28;20435;-71
2023/01/14 11:02:02;;;;;;;3.90;1.20;;;8.30;99.90;;;;;;5021650;28;20464;-71
2023/01/14 11:04:34;;;;;;;5.00;2.83;;;8.30;99.90;;;;;;5041346;28;20495;-71
2023/01/14 11:07:11;;;;;;;1.83;1.70;;;8.30;99.90;;;;;;5042950;28;20432;-71
2023/01/14 11:09:38;;;;;;;7.60;1.67;;;8.40;99.90;;;;;;5043927;28;20492;-71
2023/01/14 11:12:04;;;;;;;3.53;1.50;;;8.40;99.90;;;;;;5046225;28;20425;-71
2023/01/14 11:14:36;;;;;;;2.03;1.20;;;8.50;99.90;;;;;;5055794;22;20487;-70
2023/01/14 11:17:22;;;;;;;2.97;0.93;;;8.40;99.90;;;;;;5034042;28;20792;-70
2023/01/14 11:19:47;;;;;;;1.40;1.30;;;8.50;99.90;;;;;;5033524;28;20609;-71
2023/01/14 11:22:13;;;;;;;1.30;0.90;;;8.50;99.90;;;;;;5034067;28;20504;-71
2023/01/14 11:24:43;;;;;;;4.00;2.70;;;8.50;99.90;;;;;;5033847;28;20281;-70
2023/01/14 11:27:18;;;;;;;5.93;3.80;;;8.40;99.90;;;;;;5033192;28;20416;-70
2023/01/14 11:29:58;;;;;;;6.20;3.30;;;8.50;99.90;;;;;;5033105;28;20456;-70
2023/01/14 11:32:27;;;;;;;5.40;2.83;;;8.50;99.90;;;;;;5015427;28;20421;-70
2023/01/14 11:34:55;;;;;;;2.60;1.50;;;8.50;99.90;;;;;;5013776;28;20528;-71
2023/01/14 11:37:24;;;;;;;3.17;1.50;;;8.50;99.90;;;;;;5013874;28;20433;-71
2023/01/14 11:39:57;;;;;;;4.40;1.40;;;8.60;99.90;;;;;;5013163;28;20823;-70
2023/01/14 11:42:30;;;;;;;3.13;1.33;;;8.60;99.90;;;;;;5013834;28;20428;-71
2023/01/14 11:45:01;;;;;;;4.43;1.70;;;8.60;99.90;;;;;;5013732;28;20880;-70
2023/01/14 11:47:29;;;;;;;1.67;1.57;;;8.70;99.90;;;;;;5013687;28;20449;-71
2023/01/14 11:50:22;;;;;;;1.07;0.97;;;8.60;99.90;;;;;;5012857;28;20461;-71
2023/01/14 11:53:18;;;;;;;2.30;1.60;;;8.70;99.90;;;;;;5013724;28;20425;-71
2023/01/14 11:55:47;;;;;;;4.37;1.33;;;8.70;99.90;;;;;;5013431;28;20441;-71
2023/01/14 11:58:29;;;;;;;2.00;1.30;;;8.70;99.90;;;;;;5012746;28;20433;-70
2023/01/14 12:01:09;;;;;;;1.80;1.17;;;8.70;99.90;;;;;;5022189;28;21001;-70
2023/01/14 12:03:41;;;;;;;7.83;1.80;;;8.80;99.90;;;;;;5033263;28;20437;-70
2023/01/14 12:06:17;;;;;;;4.70;1.10;;;8.80;99.90;;;;;;5017013;28;20426;-71
2023/01/14 12:08:46;;;;;;;2.60;1.20;;;8.80;99.90;;;;;;5019320;28;20462;-71
2023/01/14 12:11:19;;;;;;;2.50;1.53;;;8.80;99.90;;;;;;5016591;28;20441;-70
2023/01/14 12:16:56;;;;;;;3.70;1.53;;;8.70;99.90;;;;;;5032991;28;20486;-71
2023/01/14 12:19:44;;;;;;;2.00;1.70;;;8.80;99.90;;;;;;5032169;28;20773;-71
2023/01/14 12:22:28;;;;;;;2.07;1.33;;;8.80;99.90;;;;;;5024661;28;20442;-71
2023/01/14 12:25:02;;;;;;;2.20;1.03;;;8.80;99.90;;;;;;5012984;28;20445;-70
2023/01/14 12:27:42;;;;;;;3.37;2.03;;;8.80;99.90;;;;;;4993461;28;20431;-70
2023/01/14 12:30:37;;;;;;;2.10;1.67;;;8.80;99.90;;;;;;4992714;28;20804;-70
2023/01/14 12:33:09;;;;;;;4.20;1.53;;;8.80;99.90;;;;;;4993244;28;20421;-70
2023/01/14 12:35:51;;;;;;;2.70;2.07;;;8.70;99.90;;;;;;4993163;28;20546;-71
2023/01/14 12:47:03;;;;;;;4.00;1.37;;;8.70;99.90;;;;;;4993144;28;20954;-71
2023/01/14 12:49:31;;;;;;;4.10;2.43;;;8.70;99.90;;;;;;4992165;28;20462;-70
2023/01/14 12:51:57;;;;;;;1.80;1.23;;;8.70;99.90;;;;;;4993124;28;20427;-70
2023/01/14 12:54:29;;;;;;;4.80;2.03;;;8.70;99.90;;;;;;4992858;28;20442;-70
2023/01/14 12:56:58;;;;;;;4.20;2.30;;;8.70;99.90;;;;;;5006836;28;20430;-70
2023/01/14 12:59:32;;;;;;;2.50;1.60;;;8.70;99.90;;;;;;5011738;28;20433;-70
2023/01/14 13:02:05;;;;;;;3.90;1.50;;;8.70;99.90;;;;;;4998678;28;20425;-71
2023/01/14 13:04:48;;;;;;;4.93;1.40;;;8.70;99.90;;;;;;5032073;28;20436;-70
2023/01/14 13:07:27;;;;;;;1.47;1.23;;;8.70;99.90;;;;;;5013881;28;20519;-70
2023/01/14 13:09:56;;;;;;;3.30;1.53;;;8.80;99.90;;;;;;5013368;28;20594;-71
2023/01/14 13:12:37;;;;;;;1.67;1.43;;;8.80;99.90;;;;;;5020581;28;20520;-71
2023/01/14 13:15:07;;;;;;;3.10;1.13;;;8.80;99.90;;;;;;5021036;28;20474;-71
2023/01/14 13:17:38;;;;;;;4.23;1.40;;;8.80;99.90;;;;;;5023109;28;20523;-71
2023/01/14 13:20:29;;;;;;;3.33;1.00;;;8.80;99.90;;;;;;5017689;28;20438;-70
2023/01/14 13:22:56;;;;;;;2.90;1.07;;;8.90;99.90;;;;;;5020074;28;20855;-71
2023/01/14 13:25:40;;;;;;;3.20;1.30;;;8.90;99.90;;;;;;5030382;28;20445;-70
2023/01/14 13:28:12;;;;;;;4.20;2.13;;;9.00;99.90;;;;;;5031643;28;20461;-71
2023/01/14 13:30:50;;;;;;;2.03;1.50;;;9.00;99.90;;;;;;5019783;28;20456;-70
2023/01/14 13:33:20;;;;;;;3.03;1.40;;;9.00;99.90;;;;;;5011976;28;20416;-71
2023/01/14 13:36:16;;;;;;;1.80;1.23;;;9.10;99.90;;;;;;5012017;28;21006;-71
2023/01/14 13:39:06;;;;;;;3.10;1.70;;;9.10;99.90;;;;;;5011318;28;20434;-70
2023/01/14 13:41:40;;;;;;;3.20;1.10;;;9.10;99.90;;;;;;5023116;28;20432;-70
2023/01/14 13:44:36;;;;;;;1.83;1.20;;;9.10;99.90;;;;;;5031772;28;20453;-70
2023/01/14 13:47:04;;;;;;;2.70;1.50;;;9.00;99.90;;;;;;5024472;28;20930;-70
2023/01/14 13:49:36;;;;;;;3.10;1.90;;;9.10;99.90;;;;;;5012637;28;21063;-71
2023/01/14 13:52:14;;;;;;;3.00;2.23;;;9.10;99.90;;;;;;5015807;28;20421;-71
2023/01/14 13:54:40;;;;;;;2.73;1.93;;;9.10;99.90;;;;;;5015751;28;20468;-71